Axtell, Texas
Current Conditions -  °F | °C
As of 1:51 PM on Monday 24 Nov 2014 (Local Time) from KACT Reporting Station
Clear Clear  
Wind Chill: 62°   Ceiling: Unl
Heat Index: 62°   Visibility: 10mi
Dew Point: 22°   Wind: 6mph
Humidity: 21%   Direction: 330°NNW
Pressure: 30.07"   Gusts: NA
Location:  31.66°N, 96.97°W
Report Text: KACT 241951Z 33005KT 10SM CLR 17/M06 A3007 RMK AO2 SLP180 T01671056
Loading
Personal Weather Stations






























Interactive Weather Map New forecast layout! Learn more

10-Day Weather Forecast

Advertisements
Track Severe Weather on mobile